createdAt,value
2019-02-25T00:03:06.860Z,18.10
2019-02-25T00:08:13.984Z,19.53
2019-02-25T00:13:19.811Z,17.10
2019-02-25T00:18:25.471Z,20.70
2019-02-25T00:23:31.011Z,20.50
2019-02-25T00:28:36.740Z,19.37
2019-02-25T00:33:42.612Z,20.97
2019-02-25T00:38:48.564Z,21.33
2019-02-25T00:43:54.279Z,22.07
2019-02-25T00:49:01.017Z,18.50
2019-02-25T00:54:08.011Z,20.97
2019-02-25T00:59:13.915Z,19.93
2019-02-25T01:04:19.699Z,18.83
2019-02-25T01:09:26.218Z,17.30
2019-02-25T01:14:31.930Z,20.23
2019-02-25T01:19:38.067Z,19.27
2019-02-25T01:24:43.811Z,19.53
2019-02-25T01:29:49.546Z,21.73
2019-02-25T01:34:55.353Z,20.57
2019-02-25T01:40:01.097Z,18.73
2019-02-25T01:45:14.950Z,20.90
2019-02-25T01:50:20.876Z,19.73
2019-02-25T01:55:26.447Z,19.73
2019-02-25T02:00:33.572Z,24.03
2019-02-25T02:05:39.510Z,21.60
2019-02-25T02:10:45.144Z,19.83
2019-02-25T02:15:50.795Z,18.60
2019-02-25T02:20:56.715Z,24.33
2019-02-25T02:26:02.467Z,19.63
2019-02-25T02:31:08.423Z,22.87
2019-02-25T02:36:14.252Z,18.57
2019-02-25T02:41:20.787Z,21.43
2019-02-25T02:46:35.160Z,21.83
2019-02-25T02:51:40.720Z,20.87
2019-02-25T02:56:46.305Z,20.30
2019-02-25T03:01:51.948Z,19.83
2019-02-25T03:06:59.215Z,19.93
2019-02-25T03:12:04.866Z,21.00
2019-02-25T03:17:10.819Z,22.97
2019-02-25T03:22:16.820Z,20.67
2019-02-25T03:27:24.071Z,18.50
2019-02-25T03:32:29.834Z,19.10
2019-02-25T03:37:36.224Z,19.90
2019-02-25T03:42:41.887Z,19.67
2019-02-25T03:47:48.137Z,19.10
2019-02-25T03:52:53.693Z,19.47
2019-02-25T03:57:59.498Z,20.67
2019-02-25T04:03:06.205Z,21.57
2019-02-25T04:08:11.961Z,19.33
2019-02-25T04:13:17.500Z,20.70
2019-02-25T04:18:23.349Z,22.50
2019-02-25T04:23:31.128Z,21.10
2019-02-25T04:28:36.690Z,24.50
2019-02-25T04:33:42.329Z,18.97
2019-02-25T04:38:47.886Z,21.40
2019-02-25T04:43:53.575Z,21.70
2019-02-25T04:48:59.121Z,21.70
2019-02-25T04:54:04.772Z,20.57
2019-02-25T04:59:10.766Z,22.20
2019-02-25T05:04:16.934Z,23.17
2019-02-25T05:09:22.659Z,22.50
2019-02-25T05:14:28.477Z,20.17
2019-02-25T05:19:34.028Z,21.73
2019-02-25T05:24:39.674Z,21.00
2019-02-25T05:29:45.294Z,23.50
2019-02-25T05:34:50.905Z,21.43
2019-02-25T05:39:56.576Z,19.70
2019-02-25T05:45:04.496Z,18.60
2019-02-25T05:50:14.115Z,20.90
2019-02-25T05:55:21.878Z,24.47
2019-02-25T06:00:29.061Z,25.33
2019-02-25T06:05:34.620Z,21.80
2019-02-25T06:10:40.188Z,20.97
2019-02-25T06:15:45.819Z,26.97
2019-02-25T06:20:51.682Z,26.13
2019-02-25T06:25:57.321Z,20.87
2019-02-25T06:31:03.591Z,23.20
2019-02-25T06:36:10.500Z,25.87
2019-02-25T06:41:16.149Z,28.30
2019-02-25T06:46:23.307Z,23.97
2019-02-25T06:51:30.507Z,29.00
2019-02-25T06:56:37.969Z,28.53
2019-02-25T07:01:45.402Z,28.23
2019-02-25T07:06:59.207Z,22.20
2019-02-25T07:12:08.307Z,23.53
2019-02-25T07:17:34.263Z,27.00
2019-02-25T07:22:42.088Z,24.67
2019-02-25T07:27:49.692Z,25.77
2019-02-25T07:33:14.637Z,26.73
2019-02-25T07:38:23.935Z,28.57
2019-02-25T07:43:47.372Z,28.37
2019-02-25T07:49:12.887Z,26.03
2019-02-25T07:54:26.042Z,27.17
2019-02-25T07:59:33.259Z,27.43
2019-02-25T08:04:41.430Z,26.10
2019-02-25T08:09:57.359Z,25.97
2019-02-25T08:15:11.055Z,31.63
2019-02-25T08:20:18.365Z,29.37
2019-02-25T08:25:25.816Z,28.27
2019-02-25T08:30:34.012Z,34.47
2019-02-25T08:35:53.085Z,30.47
2019-02-25T08:41:17.126Z,30.00
2019-02-25T08:46:27.669Z,33.17
2019-02-25T08:51:35.151Z,31.07
2019-02-25T08:56:41.597Z,29.17
2019-02-25T09:01:48.576Z,31.37
2019-02-25T09:06:54.224Z,37.07
2019-02-25T09:12:01.370Z,37.73
2019-02-25T09:17:07.976Z,32.43
2019-02-25T09:22:13.980Z,37.23
2019-02-25T09:27:19.610Z,36.80
2019-02-25T09:32:26.443Z,33.40
2019-02-25T09:37:33.097Z,37.77
2019-02-25T09:42:39.988Z,47.00
2019-02-25T09:47:45.605Z,38.90
2019-02-25T09:52:51.733Z,45.53
2019-02-25T09:57:58.174Z,46.33
2019-02-25T10:03:03.751Z,46.60
2019-02-25T10:08:10.497Z,51.43
2019-02-25T10:13:17.469Z,66.77
2019-02-25T10:18:24.056Z,48.30
2019-02-25T10:23:29.694Z,49.07
2019-02-25T10:28:35.385Z,49.83
2019-02-25T10:33:42.517Z,52.70
2019-02-25T10:38:48.649Z,55.40
2019-02-25T10:43:54.789Z,51.17
2019-02-25T10:49:10.939Z,52.40
2019-02-25T10:54:09.125Z,47.00
2019-02-25T10:59:15.947Z,50.17
2019-02-25T11:04:23.921Z,60.23
2019-02-25T11:09:32.715Z,49.57
2019-02-25T11:14:40.919Z,59.57
2019-02-25T11:19:46.198Z,51.53
2019-02-25T11:24:53.506Z,47.03
2019-02-25T11:30:00.956Z,51.83
2019-02-25T11:35:10.685Z,45.93
2019-02-25T11:40:17.518Z,49.63
2019-02-25T11:45:25.093Z,47.10
2019-02-25T11:50:31.611Z,44.80
2019-02-25T11:55:39.721Z,50.97
2019-02-25T12:00:46.383Z,51.40
2019-02-25T12:05:53.579Z,46.80
2019-02-25T12:10:59.476Z,49.27
2019-02-25T12:16:06.086Z,45.77
2019-02-25T12:21:14.253Z,50.30
2019-02-25T12:26:20.963Z,47.90
2019-02-25T12:31:29.406Z,47.77
2019-02-25T12:36:37.084Z,52.80
2019-02-25T12:41:45.125Z,46.83
2019-02-25T12:46:53.254Z,41.93
2019-02-25T12:52:00.268Z,48.30
2019-02-25T12:57:07.219Z,46.70
2019-02-25T13:02:13.643Z,43.77
2019-02-25T13:07:19.722Z,45.23
2019-02-25T13:12:26.778Z,43.37
2019-02-25T13:17:33.199Z,51.17
2019-02-25T13:22:40.584Z,42.40
2019-02-25T13:27:46.484Z,43.87
2019-02-25T13:32:53.397Z,40.80
2019-02-25T13:37:59.833Z,42.80
2019-02-25T13:43:06.111Z,40.33
2019-02-25T13:48:11.999Z,41.63
2019-02-25T13:53:19.431Z,37.13
2019-02-25T13:58:25.394Z,41.73
2019-02-25T14:03:31.073Z,40.03
2019-02-25T14:08:36.885Z,39.87
2019-02-25T14:13:45.210Z,36.67
2019-02-25T14:18:52.310Z,32.67
2019-02-25T14:23:59.839Z,38.47
2019-02-25T14:29:08.022Z,40.67
2019-02-25T14:34:15.629Z,39.83
2019-02-25T14:39:27.569Z,39.17
2019-02-25T14:44:35.387Z,37.23
2019-02-25T14:49:42.946Z,37.40
2019-02-25T14:54:48.802Z,36.00
2019-02-25T14:59:55.814Z,35.57
2019-02-25T15:05:03.031Z,41.83
2019-02-25T15:10:11.128Z,32.00
2019-02-25T15:15:25.183Z,33.27
2019-02-25T15:20:31.450Z,36.03
2019-02-25T15:25:42.117Z,35.07
2019-02-25T15:30:47.104Z,34.10
2019-02-25T15:35:54.596Z,40.80
2019-02-25T15:41:04.428Z,36.53
2019-02-25T15:46:12.395Z,36.20
2019-02-25T15:51:20.375Z,34.00
2019-02-25T15:56:33.361Z,38.10
2019-02-25T16:01:39.141Z,38.20
2019-02-25T16:06:45.976Z,35.77
2019-02-25T16:11:55.367Z,32.40
2019-02-25T16:17:01.667Z,32.87
2019-02-25T16:22:11.760Z,32.10
2019-02-25T16:27:21.075Z,31.10
2019-02-25T16:32:27.729Z,28.87
2019-02-25T16:37:35.565Z,31.93
2019-02-25T16:42:42.631Z,32.53
2019-02-25T16:47:50.963Z,33.37
2019-02-25T16:52:57.863Z,30.47
2019-02-25T16:58:06.164Z,27.80
2019-02-25T17:03:13.793Z,29.67
2019-02-25T17:08:24.004Z,30.33
2019-02-25T17:13:32.495Z,32.80
2019-02-25T17:18:39.845Z,35.20
2019-02-25T17:23:46.399Z,29.47
2019-02-25T17:28:52.528Z,33.53
2019-02-25T17:33:59.383Z,34.27
2019-02-25T17:39:08.728Z,33.23
2019-02-25T17:44:17.864Z,31.97
2019-02-25T17:49:23.185Z,34.73
2019-02-25T17:54:31.228Z,38.47
2019-02-25T17:59:39.265Z,32.87
2019-02-25T18:04:47.115Z,32.57
2019-02-25T18:09:54.906Z,34.00
2019-02-25T18:15:01.484Z,32.63
2019-02-25T18:20:11.923Z,37.77
2019-02-25T18:25:20.489Z,35.23
2019-02-25T18:30:33.314Z,32.50
2019-02-25T18:35:41.629Z,35.97
2019-02-25T18:40:49.223Z,32.50
2019-02-25T18:45:56.320Z,36.67
2019-02-25T18:51:03.639Z,35.97
2019-02-25T18:56:14.151Z,34.90
2019-02-25T19:01:20.714Z,42.40
2019-02-25T19:06:26.607Z,35.17
2019-02-25T19:11:32.840Z,36.30
2019-02-25T19:16:40.041Z,32.37
2019-02-25T19:21:47.860Z,37.93
2019-02-25T19:26:55.016Z,36.27
2019-02-25T19:32:01.693Z,35.03
2019-02-25T19:37:11.930Z,38.00
2019-02-25T19:42:19.785Z,34.33
2019-02-25T19:47:24.605Z,36.80
2019-02-25T19:52:34.742Z,32.20
2019-02-25T19:57:38.659Z,35.23
2019-02-25T20:02:47.981Z,31.20
2019-02-25T20:07:56.522Z,32.53
2019-02-25T20:13:08.515Z,43.43
2019-02-25T20:18:14.347Z,37.43
2019-02-25T20:23:23.983Z,33.03
2019-02-25T20:28:28.235Z,36.43
2019-02-25T20:33:35.200Z,39.33
2019-02-25T20:38:43.796Z,33.50
2019-02-25T20:43:53.971Z,37.63
2019-02-25T20:48:59.937Z,36.33
2019-02-25T20:54:06.113Z,37.00
2019-02-25T20:59:11.745Z,37.97
2019-02-25T21:04:21.794Z,36.17
2019-02-25T21:09:27.304Z,32.77
2019-02-25T21:14:35.671Z,31.40
2019-02-25T21:19:44.285Z,102.10
2019-02-25T21:24:53.974Z,36.27
2019-02-25T21:29:58.985Z,37.23
2019-02-25T21:35:10.214Z,31.90
2019-02-25T21:40:17.606Z,36.53
2019-02-25T21:45:25.166Z,33.00
2019-02-25T21:50:33.533Z,32.80
2019-02-25T21:55:38.509Z,34.73
2019-02-25T22:00:44.474Z,34.77
2019-02-25T22:05:51.744Z,34.63
2019-02-25T22:11:11.647Z,39.70
2019-02-25T22:16:07.915Z,33.67
2019-02-25T22:21:14.179Z,32.53
2019-02-25T22:26:24.121Z,37.13
2019-02-25T22:31:28.724Z,31.47
2019-02-25T22:36:34.719Z,33.20
2019-02-25T22:41:42.297Z,37.33
2019-02-25T22:46:47.949Z,36.33
2019-02-25T22:51:55.767Z,32.60
2019-02-25T22:57:00.962Z,40.77
2019-02-25T23:02:08.773Z,33.17
2019-02-25T23:07:15.240Z,38.67
2019-02-25T23:12:24.276Z,34.07
2019-02-25T23:17:35.100Z,38.83
2019-02-25T23:22:39.588Z,32.30
2019-02-25T23:27:45.555Z,34.53
2019-02-25T23:32:52.362Z,33.23
2019-02-25T23:38:00.861Z,33.87
2019-02-25T23:43:07.487Z,38.63
2019-02-25T23:48:15.214Z,34.17
2019-02-25T23:53:20.788Z,39.43
2019-02-25T23:58:26.638Z,39.13
